Time;durP1;ratioP1;P1;durP2;ratioP2;P2;SDS_P1;SDS_P2;PMS_P1;PMS_P2;Temp;Humidity;BMP_temperature;BMP_pressure;BME280_temperature;BME280_humidity;BME280_pressure;Samples;Min_cycle;Max_cycle;Signal;HPM_P1;HPM_P2
2021/03/11 00:00:36;;;;;;;23.60;15.17;;;;;;;;;;4994889;28;20214;-78
2021/03/11 00:03:06;;;;;;;19.37;15.40;;;;;;;;;;4994927;28;20196;-77
2021/03/11 00:05:33;;;;;;;40.47;23.73;;;;;;;;;;4992838;28;20214;-77
2021/03/11 00:07:59;;;;;;;21.60;15.93;;;;;;;;;;4994967;28;20279;-78
2021/03/11 00:10:26;;;;;;;18.50;14.43;;;;;;;;;;4994901;28;20215;-77
2021/03/11 00:12:52;;;;;;;27.03;18.90;;;;;;;;;;4994805;28;20234;-78
2021/03/11 00:15:19;;;;;;;27.17;17.63;;;;;;;;;;4994525;28;20203;-77
2021/03/11 00:17:45;;;;;;;18.53;15.20;;;;;;;;;;4995097;28;20215;-77
2021/03/11 00:20:13;;;;;;;22.83;14.20;;;;;;;;;;4995158;28;20179;-78
2021/03/11 00:22:39;;;;;;;17.87;13.43;;;;;;;;;;4994599;28;20183;-78
2021/03/11 00:25:06;;;;;;;20.07;14.67;;;;;;;;;;4994734;28;20211;-78
2021/03/11 00:27:33;;;;;;;18.60;14.07;;;;;;;;;;4994793;28;20697;-77
2021/03/11 00:29:59;;;;;;;20.73;14.53;;;;;;;;;;4994805;28;20184;-77
2021/03/11 00:32:25;;;;;;;17.73;13.90;;;;;;;;;;4995489;28;20240;-77
2021/03/11 00:34:51;;;;;;;17.37;14.23;;;;;;;;;;4994804;28;20207;-77
2021/03/11 00:37:17;;;;;;;18.60;14.17;;;;;;;;;;4994319;28;20196;-77
2021/03/11 00:39:43;;;;;;;18.43;13.87;;;;;;;;;;4994002;28;20184;-77
2021/03/11 00:42:10;;;;;;;19.23;14.90;;;;;;;;;;5002892;28;20278;-77
2021/03/11 00:44:36;;;;;;;21.80;14.47;;;;;;;;;;4993083;28;20276;-77
2021/03/11 00:47:03;;;;;;;20.13;15.00;;;;;;;;;;4994353;28;20208;-78
2021/03/11 00:49:29;;;;;;;16.63;13.33;;;;;;;;;;4994078;28;20266;-78
2021/03/11 00:51:56;;;;;;;17.80;14.30;;;;;;;;;;4994281;28;20265;-78
2021/03/11 00:54:22;;;;;;;18.43;13.50;;;;;;;;;;4994397;28;20204;-78
2021/03/11 00:56:48;;;;;;;18.17;13.80;;;;;;;;;;4993866;28;20648;-78
2021/03/11 00:59:15;;;;;;;21.50;14.70;;;;;;;;;;4993970;28;20626;-78
2021/03/11 01:01:42;;;;;;;19.03;14.20;;;;;;;;;;4994009;28;20271;-78
2021/03/11 01:04:08;;;;;;;18.43;14.60;;;;;;;;;;4992367;28;20269;-77
2021/03/11 01:06:34;;;;;;;19.63;13.97;;;;;;;;;;4993872;28;20208;-78
2021/03/11 01:09:00;;;;;;;20.50;13.63;;;;;;;;;;4994679;28;20187;-78
2021/03/11 01:11:26;;;;;;;19.63;14.00;;;;;;;;;;4995199;28;20183;-78
2021/03/11 01:13:52;;;;;;;17.83;13.23;;;;;;;;;;4992052;28;20187;-78
2021/03/11 01:16:18;;;;;;;18.00;14.13;;;;;;;;;;4993667;28;20589;-77
2021/03/11 01:18:44;;;;;;;19.93;15.23;;;;;;;;;;4993681;28;20216;-77
2021/03/11 01:21:10;;;;;;;18.90;14.03;;;;;;;;;;4993506;28;20263;-77
2021/03/11 01:23:36;;;;;;;17.03;14.00;;;;;;;;;;4993393;28;20182;-78
2021/03/11 01:26:02;;;;;;;18.37;14.13;;;;;;;;;;4993487;28;20188;-77
2021/03/11 01:28:28;;;;;;;16.73;13.23;;;;;;;;;;4991951;28;20278;-77
2021/03/11 01:30:55;;;;;;;17.77;13.87;;;;;;;;;;4993749;28;20287;-78
2021/03/11 01:33:21;;;;;;;17.50;14.13;;;;;;;;;;4994012;28;20175;-77
2021/03/11 01:35:47;;;;;;;22.07;15.70;;;;;;;;;;4994728;28;20657;-78
2021/03/11 01:38:13;;;;;;;19.93;14.43;;;;;;;;;;4992909;28;20203;-77
2021/03/11 01:40:39;;;;;;;19.57;14.13;;;;;;;;;;4998031;28;20205;-77
2021/03/11 01:43:05;;;;;;;17.60;14.27;;;;;;;;;;4997120;28;20191;-78
2021/03/11 01:45:31;;;;;;;16.40;13.27;;;;;;;;;;4993709;28;20221;-78
2021/03/11 01:47:57;;;;;;;16.73;13.03;;;;;;;;;;4992904;28;20222;-78
2021/03/11 01:50:23;;;;;;;17.10;13.80;;;;;;;;;;4993650;28;20538;-78
2021/03/11 01:52:50;;;;;;;16.17;13.73;;;;;;;;;;4993661;28;20266;-78
2021/03/11 01:55:17;;;;;;;19.57;14.63;;;;;;;;;;4992697;28;20634;-77
2021/03/11 01:57:44;;;;;;;16.60;13.47;;;;;;;;;;4993396;28;20284;-78
2021/03/11 02:00:11;;;;;;;16.97;14.50;;;;;;;;;;4985281;28;20239;-78
2021/03/11 02:02:40;;;;;;;16.90;13.80;;;;;;;;;;4985539;28;20179;-78
2021/03/11 02:05:06;;;;;;;18.83;14.43;;;;;;;;;;4991629;28;20242;-78
2021/03/11 02:07:33;;;;;;;19.03;14.40;;;;;;;;;;4993113;28;20225;-78
2021/03/11 02:10:00;;;;;;;19.63;14.17;;;;;;;;;;4993925;28;20187;-78
2021/03/11 02:12:36;;;;;;;18.60;14.47;;;;;;;;;;4992763;28;20693;-78
2021/03/11 02:15:07;;;;;;;21.67;14.00;;;;;;;;;;4993640;28;20207;-78
2021/03/11 02:17:40;;;;;;;21.27;14.60;;;;;;;;;;4994480;28;20219;-78
2021/03/11 02:20:28;;;;;;;15.43;12.90;;;;;;;;;;4992410;28;20630;-78
2021/03/11 02:23:08;;;;;;;19.17;14.57;;;;;;;;;;4992710;28;20758;-78
2021/03/11 02:25:37;;;;;;;17.50;14.33;;;;;;;;;;4993563;28;20222;-78
2021/03/11 02:28:03;;;;;;;18.57;14.07;;;;;;;;;;4991455;28;20291;-77
2021/03/11 02:30:29;;;;;;;20.87;14.47;;;;;;;;;;4992871;28;20271;-78
2021/03/11 02:32:55;;;;;;;17.37;14.47;;;;;;;;;;4992638;28;20190;-78
2021/03/11 02:35:22;;;;;;;19.70;15.00;;;;;;;;;;4992842;28;20908;-77
2021/03/11 02:37:52;;;;;;;20.30;14.47;;;;;;;;;;4993340;28;20303;-77
2021/03/11 02:40:24;;;;;;;18.40;14.87;;;;;;;;;;4996015;28;20233;-77
2021/03/11 02:42:50;;;;;;;20.90;14.90;;;;;;;;;;5002431;28;20643;-77
2021/03/11 02:45:18;;;;;;;25.00;17.33;;;;;;;;;;4996507;28;20302;-77
2021/03/11 02:47:44;;;;;;;17.63;14.73;;;;;;;;;;4996324;28;20319;-78
2021/03/11 02:50:11;;;;;;;19.57;14.87;;;;;;;;;;4996100;28;20195;-78
2021/03/11 02:52:38;;;;;;;20.53;14.73;;;;;;;;;;4996744;28;20579;-78
2021/03/11 02:55:04;;;;;;;19.07;14.07;;;;;;;;;;4997154;28;20203;-78
2021/03/11 02:57:32;;;;;;;23.20;14.93;;;;;;;;;;4997062;28;20195;-77
2021/03/11 02:59:58;;;;;;;17.73;13.93;;;;;;;;;;4995997;28;20657;-77
2021/03/11 03:02:25;;;;;;;20.50;14.60;;;;;;;;;;4996380;28;20190;-78
2021/03/11 03:04:55;;;;;;;18.13;13.50;;;;;;;;;;4995009;28;20614;-78
2021/03/11 03:07:21;;;;;;;19.30;15.13;;;;;;;;;;4994625;28;20583;-77
2021/03/11 03:09:49;;;;;;;19.43;14.23;;;;;;;;;;4996035;28;20184;-78
2021/03/11 03:12:16;;;;;;;14.87;13.17;;;;;;;;;;4996282;28;20586;-78
2021/03/11 03:14:45;;;;;;;20.67;15.00;;;;;;;;;;4996359;28;20207;-77
2021/03/11 03:17:13;;;;;;;17.10;13.73;;;;;;;;;;4987776;28;20223;-77
2021/03/11 03:19:40;;;;;;;18.97;13.57;;;;;;;;;;4984332;28;20230;-77
2021/03/11 03:22:06;;;;;;;20.30;12.97;;;;;;;;;;4994083;28;20238;-78
2021/03/11 03:24:33;;;;;;;17.43;12.80;;;;;;;;;;4994588;28;20176;-78
2021/03/11 03:26:59;;;;;;;17.27;12.70;;;;;;;;;;4995538;28;20235;-78
2021/03/11 03:29:26;;;;;;;15.73;12.37;;;;;;;;;;4995353;28;20194;-78
2021/03/11 03:31:52;;;;;;;18.40;12.00;;;;;;;;;;4993806;28;20188;-78
2021/03/11 03:34:18;;;;;;;19.93;12.77;;;;;;;;;;5027789;22;20238;-73
2021/03/11 03:36:44;;;;;;;15.07;11.80;;;;;;;;;;5026990;28;20962;-74
2021/03/11 03:39:11;;;;;;;14.20;10.63;;;;;;;;;;5053752;28;20184;-74
2021/03/11 03:41:38;;;;;;;13.47;10.70;;;;;;;;;;5044897;28;20220;-74
2021/03/11 03:44:05;;;;;;;15.27;10.80;;;;;;;;;;5053348;28;20276;-74
2021/03/11 03:46:31;;;;;;;17.77;11.20;;;;;;;;;;5051981;28;20219;-74
2021/03/11 03:48:58;;;;;;;15.90;11.53;;;;;;;;;;5053220;28;20253;-74
2021/03/11 03:51:26;;;;;;;14.90;10.90;;;;;;;;;;5052849;28;20178;-74
2021/03/11 03:53:54;;;;;;;14.30;11.07;;;;;;;;;;5052868;28;20195;-73
2021/03/11 03:56:29;;;;;;;15.90;11.37;;;;;;;;;;5053099;28;20183;-74
2021/03/11 03:59:00;;;;;;;15.50;11.27;;;;;;;;;;5052966;28;20997;-74
2021/03/11 04:01:28;;;;;;;14.13;10.80;;;;;;;;;;5024670;28;20211;-74
2021/03/11 04:03:55;;;;;;;16.37;11.53;;;;;;;;;;5029586;28;20246;-74
2021/03/11 04:06:21;;;;;;;16.93;11.47;;;;;;;;;;5030451;28;20188;-74
2021/03/11 04:08:48;;;;;;;13.13;10.83;;;;;;;;;;5033830;28;20184;-73
2021/03/11 04:11:16;;;;;;;15.20;11.23;;;;;;;;;;5031250;28;20178;-73
2021/03/11 04:13:43;;;;;;;15.53;11.53;;;;;;;;;;5033929;28;20210;-74
2021/03/11 04:16:18;;;;;;;16.10;11.40;;;;;;;;;;5033456;28;20215;-73
2021/03/11 04:18:45;;;;;;;16.30;11.13;;;;;;;;;;5033601;28;20177;-74
2021/03/11 04:21:12;;;;;;;13.60;11.07;;;;;;;;;;5033815;28;20211;-74
2021/03/11 04:23:40;;;;;;;13.80;10.43;;;;;;;;;;5032177;28;20205;-74
2021/03/11 04:26:06;;;;;;;13.67;9.93;;;;;;;;;;5033340;28;20174;-74
2021/03/11 04:28:36;;;;;;;14.67;10.90;;;;;;;;;;5034269;28;20191;-73
2021/03/11 04:31:02;;;;;;;12.17;10.43;;;;;;;;;;5034230;28;20171;-74
2021/03/11 04:33:29;;;;;;;16.30;10.50;;;;;;;;;;5033894;28;20179;-73
2021/03/11 04:35:55;;;;;;;14.43;11.30;;;;;;;;;;5034464;28;20206;-73
2021/03/11 04:38:21;;;;;;;15.13;10.60;;;;;;;;;;5034353;28;20674;-73
2021/03/11 04:40:48;;;;;;;13.70;9.97;;;;;;;;;;5033116;28;20175;-73
2021/03/11 04:43:14;;;;;;;12.47;10.80;;;;;;;;;;5032831;28;20713;-72
2021/03/11 04:45:44;;;;;;;14.37;10.20;;;;;;;;;;5034665;28;20180;-74
2021/03/11 04:48:11;;;;;;;13.50;10.83;;;;;;;;;;5034085;28;20646;-73
2021/03/11 04:50:41;;;;;;;13.70;10.67;;;;;;;;;;5034213;28;20168;-73
2021/03/11 04:53:08;;;;;;;15.27;10.87;;;;;;;;;;5032218;28;20192;-73
2021/03/11 04:55:34;;;;;;;12.20;10.27;;;;;;;;;;5034005;28;20327;-74
2021/03/11 04:58:02;;;;;;;16.27;10.07;;;;;;;;;;5034358;28;20202;-73
2021/03/11 05:00:28;;;;;;;12.50;9.57;;;;;;;;;;5030059;28;20309;-74
2021/03/11 05:02:55;;;;;;;15.10;10.20;;;;;;;;;;5021429;28;20187;-73
2021/03/11 05:05:31;;;;;;;13.30;9.50;;;;;;;;;;5016206;28;20203;-73
2021/03/11 05:07:57;;;;;;;13.97;9.63;;;;;;;;;;5015127;28;20271;-74
2021/03/11 05:10:23;;;;;;;12.23;9.03;;;;;;;;;;5031694;28;20262;-73
2021/03/11 05:12:49;;;;;;;13.63;9.33;;;;;;;;;;5052828;28;20179;-73
2021/03/11 05:15:15;;;;;;;15.80;9.33;;;;;;;;;;5051868;28;20202;-74
2021/03/11 05:17:42;;;;;;;11.17;8.80;;;;;;;;;;5053729;28;20232;-72
2021/03/11 05:20:09;;;;;;;10.23;8.50;;;;;;;;;;5053481;28;20638;-73
2021/03/11 05:22:35;;;;;;;9.80;8.50;;;;;;;;;;5053758;28;20193;-73
2021/03/11 05:25:01;;;;;;;10.67;8.17;;;;;;;;;;5053406;28;20194;-73
2021/03/11 05:27:27;;;;;;;9.90;8.80;;;;;;;;;;5053486;28;20179;-73
2021/03/11 05:29:53;;;;;;;12.07;8.00;;;;;;;;;;5035598;28;20217;-73
2021/03/11 05:32:19;;;;;;;9.57;7.50;;;;;;;;;;5053199;28;20175;-73
2021/03/11 05:34:45;;;;;;;9.50;6.93;;;;;;;;;;5051733;28;20692;-74
2021/03/11 05:37:12;;;;;;;11.27;7.70;;;;;;;;;;5053275;28;20322;-73
2021/03/11 05:39:39;;;;;;;9.73;7.47;;;;;;;;;;5053461;28;20179;-74
2021/03/11 05:42:06;;;;;;;10.07;8.03;;;;;;;;;;5036709;28;20182;-73
2021/03/11 05:44:32;;;;;;;8.33;6.90;;;;;;;;;;5031924;28;20203;-74
2021/03/11 05:46:59;;;;;;;8.83;6.60;;;;;;;;;;5033523;28;20178;-73
2021/03/11 05:49:25;;;;;;;7.47;6.67;;;;;;;;;;5033267;28;20193;-73
2021/03/11 05:51:52;;;;;;;7.33;6.50;;;;;;;;;;5025404;28;20203;-73
2021/03/11 05:54:18;;;;;;;7.60;6.77;;;;;;;;;;5033383;28;20212;-74
2021/03/11 05:56:44;;;;;;;9.80;6.57;;;;;;;;;;5033141;28;20248;-73
2021/03/11 05:59:11;;;;;;;7.57;6.30;;;;;;;;;;5033356;28;20190;-73
2021/03/11 06:01:37;;;;;;;7.00;6.30;;;;;;;;;;5033239;28;20187;-73
2021/03/11 06:04:03;;;;;;;6.53;5.93;;;;;;;;;;5033171;28;20202;-75
2021/03/11 06:06:34;;;;;;;7.10;6.30;;;;;;;;;;5033063;28;20182;-75
2021/03/11 06:09:01;;;;;;;7.83;6.30;;;;;;;;;;5033147;28;20183;-74
2021/03/11 06:11:28;;;;;;;7.20;5.77;;;;;;;;;;5033298;28;20192;-74
2021/03/11 06:13:55;;;;;;;8.87;5.63;;;;;;;;;;5030683;28;20200;-73
2021/03/11 06:16:24;;;;;;;6.87;5.73;;;;;;;;;;5036503;28;20681;-74
2021/03/11 06:18:50;;;;;;;7.10;6.07;;;;;;;;;;5037100;28;20537;-74
2021/03/11 06:21:17;;;;;;;7.07;5.47;;;;;;;;;;5036948;28;20172;-75
2021/03/11 06:23:44;;;;;;;5.87;5.27;;;;;;;;;;5037253;28;20198;-74
2021/03/11 06:26:13;;;;;;;8.77;5.50;;;;;;;;;;5036536;28;20272;-74
2021/03/11 06:28:45;;;;;;;7.37;5.27;;;;;;;;;;5036811;28;20325;-74
2021/03/11 06:31:28;;;;;;;6.53;4.60;;;;;;;;;;5036823;28;20229;-74
2021/03/11 06:33:55;;;;;;;5.60;4.67;;;;;;;;;;5036435;28;20593;-74
2021/03/11 06:36:22;;;;;;;5.93;4.60;;;;;;;;;;5034299;28;20742;-74
2021/03/11 06:38:49;;;;;;;4.30;3.90;;;;;;;;;;5036082;28;20171;-75
2021/03/11 06:41:15;;;;;;;5.20;4.70;;;;;;;;;;5036272;28;20649;-74
2021/03/11 06:43:53;;;;;;;5.40;4.43;;;;;;;;;;5034949;28;20741;-74
2021/03/11 06:46:21;;;;;;;4.20;3.80;;;;;;;;;;5036063;28;20179;-75
2021/03/11 06:48:48;;;;;;;5.00;3.60;;;;;;;;;;5034962;28;20174;-74
2021/03/11 06:51:18;;;;;;;4.50;4.10;;;;;;;;;;5036061;28;20234;-74
2021/03/11 06:53:54;;;;;;;5.17;4.03;;;;;;;;;;5034310;28;20234;-75
2021/03/11 06:56:22;;;;;;;8.00;4.93;;;;;;;;;;5035672;28;20219;-73
2021/03/11 06:59:04;;;;;;;4.47;4.07;;;;;;;;;;5034717;28;20647;-73
2021/03/11 07:01:32;;;;;;;3.93;3.53;;;;;;;;;;5034377;28;20223;-72
2021/03/11 07:04:01;;;;;;;7.03;3.90;;;;;;;;;;5028421;28;20209;-74
2021/03/11 07:06:27;;;;;;;4.87;3.77;;;;;;;;;;5027995;28;20164;-74
2021/03/11 07:08:54;;;;;;;4.40;3.47;;;;;;;;;;5034881;28;20182;-74
2021/03/11 07:11:20;;;;;;;4.53;3.23;;;;;;;;;;5036397;28;20511;-76
2021/03/11 07:13:47;;;;;;;6.20;3.80;;;;;;;;;;5024181;28;20269;-74
2021/03/11 07:16:14;;;;;;;6.93;3.90;;;;;;;;;;5030295;28;20250;-73
2021/03/11 07:18:40;;;;;;;6.37;3.80;;;;;;;;;;5016641;28;20262;-73
2021/03/11 07:21:06;;;;;;;5.27;4.00;;;;;;;;;;5049435;28;20171;-73
2021/03/11 07:23:32;;;;;;;6.53;3.23;;;;;;;;;;5040566;28;20231;-74
2021/03/11 07:25:58;;;;;;;4.57;3.30;;;;;;;;;;5030475;28;20254;-73
2021/03/11 07:28:26;;;;;;;4.17;3.13;;;;;;;;;;5025246;28;20211;-74
2021/03/11 07:30:53;;;;;;;5.07;3.47;;;;;;;;;;5022133;28;20547;-73
2021/03/11 07:33:19;;;;;;;5.43;3.07;;;;;;;;;;5054274;28;20565;-74
2021/03/11 07:35:47;;;;;;;4.83;3.20;;;;;;;;;;5054152;28;20212;-71
2021/03/11 07:38:16;;;;;;;5.97;3.20;;;;;;;;;;5043713;28;20181;-74
2021/03/11 07:40:42;;;;;;;6.17;3.33;;;;;;;;;;5022707;28;20173;-74
2021/03/11 07:43:09;;;;;;;6.43;3.30;;;;;;;;;;5032434;28;21528;-73
2021/03/11 07:45:35;;;;;;;4.33;3.17;;;;;;;;;;5023787;28;20734;-73
2021/03/11 07:48:02;;;;;;;3.40;3.10;;;;;;;;;;5045024;28;20176;-73
2021/03/11 07:50:28;;;;;;;4.00;3.40;;;;;;;;;;5036492;28;20183;-74
2021/03/11 07:52:56;;;;;;;4.03;3.40;;;;;;;;;;5015681;28;20172;-74
2021/03/11 07:55:25;;;;;;;4.63;3.80;;;;;;;;;;5018366;28;20212;-73
2021/03/11 07:57:51;;;;;;;4.07;3.00;;;;;;;;;;5024773;28;20528;-73
2021/03/11 08:00:23;;;;;;;3.97;3.33;;;;;;;;;;5032568;28;20177;-74
2021/03/11 08:02:54;;;;;;;4.43;3.13;;;;;;;;;;5027966;28;20177;-74
2021/03/11 08:05:30;;;;;;;4.87;3.47;;;;;;;;;;5028103;28;20738;-73
2021/03/11 08:08:15;;;;;;;4.10;3.10;;;;;;;;;;5011585;28;20184;-74
2021/03/11 08:10:41;;;;;;;4.77;3.30;;;;;;;;;;5031548;28;20658;-74
2021/03/11 08:13:26;;;;;;;4.47;3.50;;;;;;;;;;5022621;28;20191;-74
2021/03/11 08:15:56;;;;;;;6.37;3.20;;;;;;;;;;5030986;28;20256;-74
2021/03/11 08:18:35;;;;;;;4.63;3.20;;;;;;;;;;5023574;28;20178;-74
2021/03/11 08:21:01;;;;;;;4.17;3.37;;;;;;;;;;5030378;28;20172;-74
2021/03/11 08:23:36;;;;;;;3.30;2.90;;;;;;;;;;5034226;28;20206;-74
2021/03/11 08:26:04;;;;;;;3.90;3.10;;;;;;;;;;5034464;28;20229;-74
2021/03/11 08:28:30;;;;;;;6.53;3.57;;;;;;;;;;5035795;28;20260;-74
2021/03/11 08:30:59;;;;;;;4.40;3.40;;;;;;;;;;5034695;28;20235;-74
2021/03/11 08:33:25;;;;;;;5.80;3.10;;;;;;;;;;5034924;28;20192;-74
2021/03/11 08:35:52;;;;;;;5.33;3.13;;;;;;;;;;5032209;28;20320;-73
2021/03/11 08:38:21;;;;;;;4.83;2.87;;;;;;;;;;5032863;28;20193;-74
2021/03/11 08:40:55;;;;;;;3.27;2.90;;;;;;;;;;5033065;28;20177;-74
2021/03/11 08:46:03;;;;;;;6.00;2.97;;;;;;;;;;5034955;28;20223;-74
2021/03/11 08:48:40;;;;;;;3.20;2.53;;;;;;;;;;5034406;28;20264;-74
2021/03/11 08:51:08;;;;;;;3.80;2.60;;;;;;;;;;5032219;28;20181;-74
2021/03/11 08:53:38;;;;;;;4.60;3.00;;;;;;;;;;5033818;28;20207;-75
2021/03/11 08:56:31;;;;;;;5.50;2.50;;;;;;;;;;5033631;28;20261;-74
2021/03/11 08:59:15;;;;;;;3.80;2.70;;;;;;;;;;5029666;28;20186;-75
2021/03/11 09:01:50;;;;;;;2.87;2.50;;;;;;;;;;5034191;28;20170;-75
2021/03/11 09:04:18;;;;;;;2.60;2.20;;;;;;;;;;5033497;28;20219;-75
2021/03/11 09:06:51;;;;;;;3.27;2.07;;;;;;;;;;5033671;28;20216;-75
2021/03/11 09:09:18;;;;;;;3.73;2.40;;;;;;;;;;5033656;28;20197;-75
2021/03/11 09:11:54;;;;;;;4.17;2.63;;;;;;;;;;5033462;28;20516;-74
2021/03/11 09:14:24;;;;;;;4.57;2.40;;;;;;;;;;5033413;28;20201;-75
2021/03/11 09:16:50;;;;;;;2.17;1.93;;;;;;;;;;5033499;28;20189;-75
2021/03/11 09:19:16;;;;;;;4.83;2.03;;;;;;;;;;5031971;28;20635;-75
2021/03/11 09:21:43;;;;;;;2.80;2.20;;;;;;;;;;5032227;28;20180;-75
2021/03/11 09:24:16;;;;;;;2.70;1.83;;;;;;;;;;5032056;28;20202;-74
2021/03/11 09:26:42;;;;;;;5.40;2.03;;;;;;;;;;5033739;28;20540;-75
2021/03/11 09:29:08;;;;;;;6.00;2.13;;;;;;;;;;5033264;28;20173;-74
2021/03/11 12:17:24;;;;;;;1.70;0.70;;;;;;;;;;5015381;28;20254;-76
2021/03/11 12:19:50;;;;;;;2.70;0.60;;;;;;;;;;5014198;28;20273;-76
2021/03/11 12:22:16;;;;;;;6.63;0.87;;;;;;;;;;5015016;28;20608;-75
2021/03/11 12:24:42;;;;;;;2.57;0.77;;;;;;;;;;5015263;28;20183;-75
2021/03/11 12:27:09;;;;;;;1.13;1.00;;;;;;;;;;5015296;28;20611;-76
2021/03/11 12:29:35;;;;;;;1.43;0.90;;;;;;;;;;5015176;28;20179;-76
2021/03/11 12:32:01;;;;;;;2.57;0.57;;;;;;;;;;5015107;28;20531;-76
2021/03/11 12:34:27;;;;;;;3.63;0.60;;;;;;;;;;5013658;28;20339;-76
2021/03/11 12:36:54;;;;;;;6.57;0.80;;;;;;;;;;5013983;28;20257;-76
2021/03/11 12:39:20;;;;;;;2.57;0.70;;;;;;;;;;5015248;28;20183;-76
2021/03/11 12:41:46;;;;;;;1.47;0.67;;;;;;;;;;5015740;28;20278;-76
2021/03/11 12:44:13;;;;;;;3.40;0.70;;;;;;;;;;5014790;28;20183;-75
2021/03/11 12:46:39;;;;;;;3.20;0.83;;;;;;;;;;5015089;28;20226;-76
2021/03/11 12:49:05;;;;;;;1.67;0.83;;;;;;;;;;5013501;28;20178;-76
2021/03/11 12:51:31;;;;;;;2.70;0.73;;;;;;;;;;5014911;28;20186;-76
2021/03/11 12:53:57;;;;;;;3.53;1.40;;;;;;;;;;5014882;28;20205;-76
2021/03/11 12:56:24;;;;;;;2.67;1.00;;;;;;;;;;5014515;28;20297;-76
2021/03/11 12:58:50;;;;;;;4.17;0.67;;;;;;;;;;5014679;28;20179;-76
2021/03/11 13:01:16;;;;;;;2.30;0.70;;;;;;;;;;5014449;28;20179;-76
2021/03/11 13:03:42;;;;;;;4.50;0.70;;;;;;;;;;5013237;28;20557;-76
2021/03/11 13:06:08;;;;;;;1.27;0.70;;;;;;;;;;5014161;28;20689;-77
2021/03/11 13:08:34;;;;;;;5.03;0.90;;;;;;;;;;5011784;28;20633;-76
2021/03/11 13:11:00;;;;;;;2.03;0.97;;;;;;;;;;5011973;28;20187;-76
2021/03/11 13:13:26;;;;;;;2.13;0.70;;;;;;;;;;5011820;28;20256;-76
2021/03/11 13:15:53;;;;;;;9.00;0.70;;;;;;;;;;5012006;28;20216;-77
2021/03/11 13:18:19;;;;;;;1.80;1.10;;;;;;;;;;5012564;28;20283;-76
2021/03/11 13:20:46;;;;;;;3.17;1.20;;;;;;;;;;5012177;28;20190;-74
2021/03/11 13:23:12;;;;;;;7.53;1.30;;;;;;;;;;5012145;28;20570;-77
2021/03/11 13:25:41;;;;;;;1.60;1.00;;;;;;;;;;5012010;28;20303;-76
2021/03/11 13:28:07;;;;;;;1.23;0.70;;;;;;;;;;5027440;28;20184;-76
2021/03/11 13:30:34;;;;;;;2.97;0.80;;;;;;;;;;5013601;28;20210;-75
2021/03/11 13:33:00;;;;;;;6.90;0.90;;;;;;;;;;5013747;28;20186;-76
2021/03/11 13:35:27;;;;;;;1.70;0.90;;;;;;;;;;5011791;28;20207;-76
2021/03/11 13:37:54;;;;;;;4.97;1.27;;;;;;;;;;5012036;28;20183;-76
2021/03/11 13:40:21;;;;;;;1.47;0.80;;;;;;;;;;5011834;28;20175;-76
2021/03/11 13:42:47;;;;;;;2.30;0.60;;;;;;;;;;5012901;28;20175;-75
2021/03/11 13:45:14;;;;;;;1.97;0.70;;;;;;;;;;5011917;28;20244;-76
2021/03/11 13:47:40;;;;;;;1.40;0.70;;;;;;;;;;5012472;28;20697;-76
2021/03/11 13:50:07;;;;;;;2.17;0.87;;;;;;;;;;5012266;28;20191;-76
2021/03/11 13:52:33;;;;;;;3.97;0.80;;;;;;;;;;5012452;28;20266;-76
2021/03/11 13:55:00;;;;;;;6.70;1.00;;;;;;;;;;5011768;28;20221;-76
2021/03/11 13:57:27;;;;;;;2.90;0.80;;;;;;;;;;5012892;28;20191;-75
2021/03/11 13:59:53;;;;;;;1.97;0.70;;;;;;;;;;5012295;28;20240;-75
2021/03/11 14:02:19;;;;;;;1.13;0.80;;;;;;;;;;5013453;28;20257;-76
2021/03/11 14:04:45;;;;;;;3.77;1.10;;;;;;;;;;5012278;28;20187;-76
2021/03/11 14:07:11;;;;;;;2.33;0.70;;;;;;;;;;5011853;28;20198;-75
2021/03/11 14:09:38;;;;;;;0.67;0.57;;;;;;;;;;5013085;28;20641;-77
2021/03/11 14:12:05;;;;;;;1.57;1.30;;;;;;;;;;5012571;28;20198;-76
2021/03/11 14:14:31;;;;;;;1.40;1.07;;;;;;;;;;5012652;28;20656;-76
2021/03/11 14:16:58;;;;;;;1.43;0.77;;;;;;;;;;5009792;28;20203;-77
2021/03/11 14:19:24;;;;;;;1.57;0.90;;;;;;;;;;5026253;28;20229;-77
2021/03/11 14:21:51;;;;;;;3.80;1.33;;;;;;;;;;5011689;28;20179;-77
2021/03/11 14:24:17;;;;;;;1.23;1.13;;;;;;;;;;5026764;28;20544;-77
2021/03/11 14:26:43;;;;;;;1.30;0.90;;;;;;;;;;5012493;28;20210;-76
2021/03/11 14:29:09;;;;;;;3.83;0.87;;;;;;;;;;5012850;28;20187;-76
2021/03/11 14:31:36;;;;;;;2.80;0.80;;;;;;;;;;5006976;28;20560;-76
2021/03/11 14:34:02;;;;;;;1.37;0.90;;;;;;;;;;5009720;28;20191;-76
2021/03/11 14:36:28;;;;;;;2.20;1.20;;;;;;;;;;5012721;28;20284;-76
2021/03/11 14:38:55;;;;;;;1.53;1.13;;;;;;;;;;5016271;28;20236;-76
2021/03/11 14:41:21;;;;;;;1.40;1.03;;;;;;;;;;5014940;28;20178;-76
2021/03/11 14:43:49;;;;;;;1.07;0.93;;;;;;;;;;5015932;28;20187;-77
2021/03/11 14:46:16;;;;;;;1.33;1.20;;;;;;;;;;5027399;28;20199;-77
2021/03/11 14:48:42;;;;;;;2.47;1.23;;;;;;;;;;5014777;28;20194;-76
2021/03/11 14:51:08;;;;;;;1.10;1.00;;;;;;;;;;5014708;28;20193;-75
2021/03/11 14:53:34;;;;;;;2.10;1.20;;;;;;;;;;5014485;28;20254;-76
2021/03/11 14:56:01;;;;;;;1.57;1.10;;;;;;;;;;5014440;28;20297;-76
2021/03/11 14:58:27;;;;;;;2.07;1.57;;;;;;;;;;5015690;28;20245;-75
2021/03/11 15:00:54;;;;;;;3.40;1.60;;;;;;;;;;5014471;28;20191;-76
2021/03/11 15:03:20;;;;;;;2.17;1.60;;;;;;;;;;5015109;28;20660;-75
2021/03/11 15:05:46;;;;;;;2.73;1.40;;;;;;;;;;5013640;28;20202;-75
2021/03/11 15:08:13;;;;;;;3.07;1.60;;;;;;;;;;5015487;28;20179;-76
2021/03/11 15:10:40;;;;;;;2.83;1.90;;;;;;;;;;5012373;28;20187;-76
2021/03/11 15:13:06;;;;;;;2.23;1.40;;;;;;;;;;5008249;28;20233;-75
2021/03/11 15:15:32;;;;;;;2.10;1.50;;;;;;;;;;5013157;28;20210;-76
2021/03/11 15:17:59;;;;;;;2.10;1.30;;;;;;;;;;5013736;28;20183;-76
2021/03/11 15:20:28;;;;;;;1.40;1.00;;;;;;;;;;5014108;28;20187;-77
2021/03/11 15:22:54;;;;;;;2.00;1.00;;;;;;;;;;5014332;28;20588;-76
2021/03/11 15:25:20;;;;;;;2.00;1.17;;;;;;;;;;5013262;28;20186;-76
2021/03/11 15:27:46;;;;;;;1.40;1.00;;;;;;;;;;5013519;28;20190;-76
2021/03/11 15:30:12;;;;;;;2.07;0.87;;;;;;;;;;5012621;28;20185;-76
2021/03/11 15:32:41;;;;;;;1.40;1.03;;;;;;;;;;5013732;28;20179;-76
2021/03/11 15:35:07;;;;;;;1.33;1.00;;;;;;;;;;5012673;28;20695;-77
2021/03/11 15:37:33;;;;;;;2.43;1.20;;;;;;;;;;5009623;28;20633;-76
2021/03/11 15:40:00;;;;;;;1.20;0.80;;;;;;;;;;5013791;28;20218;-76
2021/03/11 15:42:26;;;;;;;1.30;1.13;;;;;;;;;;5012902;28;20645;-77
2021/03/11 15:44:52;;;;;;;1.60;0.80;;;;;;;;;;5014084;28;20181;-76
2021/03/11 15:47:18;;;;;;;1.00;0.80;;;;;;;;;;5028928;28;20223;-76
2021/03/11 15:49:44;;;;;;;0.87;0.70;;;;;;;;;;5013972;28;20218;-76
2021/03/11 15:52:10;;;;;;;1.17;0.70;;;;;;;;;;5013701;28;20183;-76
2021/03/11 15:54:39;;;;;;;1.33;0.60;;;;;;;;;;5013654;28;20744;-76
2021/03/11 15:57:05;;;;;;;1.83;0.73;;;;;;;;;;5013842;28;20256;-77
2021/03/11 15:59:31;;;;;;;1.30;0.90;;;;;;;;;;5013274;28;20168;-76
2021/03/11 16:01:58;;;;;;;0.80;0.80;;;;;;;;;;5013033;28;20304;-76
2021/03/11 16:04:24;;;;;;;1.43;0.80;;;;;;;;;;5014355;28;20187;-76
2021/03/11 16:06:51;;;;;;;1.10;0.90;;;;;;;;;;5013206;28;20206;-77
2021/03/11 16:09:17;;;;;;;0.80;0.80;;;;;;;;;;5017212;28;20252;-76
2021/03/11 16:11:43;;;;;;;1.20;0.97;;;;;;;;;;5012434;28;20199;-77
2021/03/11 16:14:09;;;;;;;3.43;0.90;;;;;;;;;;5026449;28;20220;-76
2021/03/11 16:16:35;;;;;;;0.70;0.70;;;;;;;;;;5028435;28;20269;-76
2021/03/11 16:19:01;;;;;;;2.07;0.80;;;;;;;;;;5013633;28;20647;-76
2021/03/11 16:21:28;;;;;;;2.87;0.97;;;;;;;;;;5012752;28;20182;-76
2021/03/11 16:23:54;;;;;;;0.80;0.80;;;;;;;;;;5014940;28;20202;-77
2021/03/11 16:26:21;;;;;;;1.13;1.00;;;;;;;;;;5016336;28;20226;-75
2021/03/11 16:28:47;;;;;;;1.93;0.70;;;;;;;;;;5015812;28;20256;-76
2021/03/11 16:31:14;;;;;;;1.30;0.50;;;;;;;;;;5014952;28;20209;-77
2021/03/11 16:33:40;;;;;;;0.70;0.70;;;;;;;;;;5014575;28;20178;-76
2021/03/11 16:36:06;;;;;;;1.30;0.70;;;;;;;;;;5014376;28;20604;-77
2021/03/11 16:38:33;;;;;;;0.67;0.67;;;;;;;;;;5015084;28;20170;-76
2021/03/11 16:40:59;;;;;;;0.80;0.80;;;;;;;;;;4999627;28;20178;-77
2021/03/11 16:43:25;;;;;;;2.00;0.80;;;;;;;;;;5013932;28;20198;-76
2021/03/11 16:45:51;;;;;;;0.80;0.60;;;;;;;;;;5014731;28;20191;-77
2021/03/11 16:48:17;;;;;;;0.37;0.30;;;;;;;;;;5013814;28;20257;-77
2021/03/11 16:50:45;;;;;;;1.17;0.60;;;;;;;;;;5014367;28;20194;-76
2021/03/11 16:53:12;;;;;;;1.50;0.43;;;;;;;;;;5014640;28;20201;-76
2021/03/11 16:55:38;;;;;;;0.50;0.30;;;;;;;;;;5014507;28;20217;-76
2021/03/11 16:58:04;;;;;;;0.60;0.50;;;;;;;;;;5013642;28;20217;-76
2021/03/11 17:00:30;;;;;;;1.80;0.50;;;;;;;;;;5014331;28;20186;-76
2021/03/11 17:02:57;;;;;;;0.50;0.33;;;;;;;;;;5014325;28;20179;-76
2021/03/11 17:05:23;;;;;;;1.53;0.40;;;;;;;;;;5014460;28;20654;-76
2021/03/11 17:07:49;;;;;;;0.80;0.60;;;;;;;;;;5014376;28;20193;-77
2021/03/11 17:10:15;;;;;;;0.60;0.40;;;;;;;;;;5013715;28;20556;-76
2021/03/11 17:12:41;;;;;;;0.97;0.40;;;;;;;;;;5013731;28;20710;-77
2021/03/11 17:15:08;;;;;;;0.70;0.40;;;;;;;;;;5014126;28;20206;-77
2021/03/11 17:17:34;;;;;;;0.80;0.50;;;;;;;;;;5012757;28;20182;-77
2021/03/11 17:20:00;;;;;;;0.83;0.63;;;;;;;;;;5014193;28;20241;-77
2021/03/11 17:22:28;;;;;;;0.50;0.40;;;;;;;;;;5013959;28;20659;-76